sensor_id;sensor_type;location;lat;lon;timestamp;P1;durP1;ratioP1;P2;durP2;ratioP2
49041;SDS011;34859;51.608;11.462;2022-09-03T00:03:05;4.47;;;0.70;;
49041;SDS011;34859;51.608;11.462;2022-09-03T00:06:39;0.70;;;0.60;;
49041;SDS011;34859;51.608;11.462;2022-09-03T00:09:14;4.20;;;0.60;;
49041;SDS011;34859;51.608;11.462;2022-09-03T00:15:08;0.95;;;0.70;;
49041;SDS011;34859;51.608;11.462;2022-09-03T00:18:08;3.53;;;0.52;;
49041;SDS011;34859;51.608;11.462;2022-09-03T00:21:03;0.80;;;0.57;;
49041;SDS011;34859;51.608;11.462;2022-09-03T00:23:52;0.80;;;0.50;;
49041;SDS011;34859;51.608;11.462;2022-09-03T00:26:46;1.10;;;0.60;;
49041;SDS011;34859;51.608;11.462;2022-09-03T00:29:38;2.22;;;0.57;;
49041;SDS011;34859;51.608;11.462;2022-09-03T00:32:33;2.88;;;0.70;;
49041;SDS011;34859;51.608;11.462;2022-09-03T00:35:33;2.65;;;0.50;;
49041;SDS011;34859;51.608;11.462;2022-09-03T00:38:38;3.55;;;0.73;;
49041;SDS011;34859;51.608;11.462;2022-09-03T00:44:26;0.80;;;0.47;;
49041;SDS011;34859;51.608;11.462;2022-09-03T00:56:43;3.53;;;0.90;;
49041;SDS011;34859;51.608;11.462;2022-09-03T01:05:52;2.50;;;0.70;;
49041;SDS011;34859;51.608;11.462;2022-09-03T01:12:28;1.85;;;0.50;;
49041;SDS011;34859;51.608;11.462;2022-09-03T01:18:31;1.05;;;0.73;;
49041;SDS011;34859;51.608;11.462;2022-09-03T01:25:20;1.90;;;0.47;;
49041;SDS011;34859;51.608;11.462;2022-09-03T01:31:24;1.50;;;0.68;;
49041;SDS011;34859;51.608;11.462;2022-09-03T01:37:16;1.13;;;0.50;;
49041;SDS011;34859;51.608;11.462;2022-09-03T01:46:33;2.80;;;0.90;;
49041;SDS011;34859;51.608;11.462;2022-09-03T01:49:44;3.38;;;0.70;;
49041;SDS011;34859;51.608;11.462;2022-09-03T01:52:49;0.90;;;0.70;;
49041;SDS011;34859;51.608;11.462;2022-09-03T01:59:58;2.95;;;0.77;;
49041;SDS011;34859;51.608;11.462;2022-09-03T02:03:18;0.93;;;0.60;;
49041;SDS011;34859;51.608;11.462;2022-09-03T02:06:04;0.90;;;0.80;;
49041;SDS011;34859;51.608;11.462;2022-09-03T02:08:50;1.23;;;0.93;;
49041;SDS011;34859;51.608;11.462;2022-09-03T02:11:35;1.13;;;0.70;;
49041;SDS011;34859;51.608;11.462;2022-09-03T02:14:42;2.80;;;0.70;;
49041;SDS011;34859;51.608;11.462;2022-09-03T02:17:28;0.90;;;0.60;;
49041;SDS011;34859;51.608;11.462;2022-09-03T02:20:52;3.30;;;0.63;;
49041;SDS011;34859;51.608;11.462;2022-09-03T02:23:49;1.00;;;0.55;;
49041;SDS011;34859;51.608;11.462;2022-09-03T02:26:36;1.88;;;0.80;;
49041;SDS011;34859;51.608;11.462;2022-09-03T02:29:21;1.95;;;0.50;;
49041;SDS011;34859;51.608;11.462;2022-09-03T02:32:05;2.15;;;0.80;;
49041;SDS011;34859;51.608;11.462;2022-09-03T02:34:57;1.70;;;0.70;;
49041;SDS011;34859;51.608;11.462;2022-09-03T02:37:42;2.63;;;0.80;;
49041;SDS011;34859;51.608;11.462;2022-09-03T02:40:27;2.70;;;0.70;;
49041;SDS011;34859;51.608;11.462;2022-09-03T02:47:23;1.92;;;1.00;;
49041;SDS011;34859;51.608;11.462;2022-09-03T02:50:42;2.25;;;0.88;;
49041;SDS011;34859;51.608;11.462;2022-09-03T02:53:48;1.05;;;0.60;;
49041;SDS011;34859;51.608;11.462;2022-09-03T02:59:57;1.75;;;0.70;;
49041;SDS011;34859;51.608;11.462;2022-09-03T03:03:11;2.45;;;1.10;;
49041;SDS011;34859;51.608;11.462;2022-09-03T03:06:29;1.08;;;0.80;;
49041;SDS011;34859;51.608;11.462;2022-09-03T03:09:46;2.80;;;0.98;;
49041;SDS011;34859;51.608;11.462;2022-09-03T03:16:37;3.08;;;0.88;;
49041;SDS011;34859;51.608;11.462;2022-09-03T03:24:39;1.00;;;0.73;;
49041;SDS011;34859;51.608;11.462;2022-09-03T03:28:24;1.50;;;0.85;;
49041;SDS011;34859;51.608;11.462;2022-09-03T03:32:13;1.08;;;0.85;;
49041;SDS011;34859;51.608;11.462;2022-09-03T04:09:39;2.00;;;0.90;;
49041;SDS011;34859;51.608;11.462;2022-09-03T04:38:57;1.58;;;0.93;;
49041;SDS011;34859;51.608;11.462;2022-09-03T05:01:22;1.25;;;0.98;;
49041;SDS011;34859;51.608;11.462;2022-09-03T05:05:21;4.45;;;1.05;;
49041;SDS011;34859;51.608;11.462;2022-09-03T05:09:13;4.10;;;1.02;;
49041;SDS011;34859;51.608;11.462;2022-09-03T05:12:56;2.95;;;0.88;;
49041;SDS011;34859;51.608;11.462;2022-09-03T05:16:27;1.70;;;0.77;;
49041;SDS011;34859;51.608;11.462;2022-09-03T05:35:11;0.93;;;0.80;;
49041;SDS011;34859;51.608;11.462;2022-09-03T06:09:14;2.22;;;1.10;;
49041;SDS011;34859;51.608;11.462;2022-09-03T06:12:55;2.25;;;0.88;;
49041;SDS011;34859;51.608;11.462;2022-09-03T06:16:32;2.20;;;0.90;;
49041;SDS011;34859;51.608;11.462;2022-09-03T06:20:20;4.78;;;1.08;;
49041;SDS011;34859;51.608;11.462;2022-09-03T06:31:22;4.25;;;1.10;;
49041;SDS011;34859;51.608;11.462;2022-09-03T06:49:44;1.20;;;1.02;;
49041;SDS011;34859;51.608;11.462;2022-09-03T06:59:51;2.03;;;1.08;;
49041;SDS011;34859;51.608;11.462;2022-09-03T07:02:38;3.42;;;1.30;;
49041;SDS011;34859;51.608;11.462;2022-09-03T07:05:24;5.60;;;1.52;;
49041;SDS011;34859;51.608;11.462;2022-09-03T07:08:10;2.00;;;1.02;;
49041;SDS011;34859;51.608;11.462;2022-09-03T07:10:56;3.00;;;1.13;;
49041;SDS011;34859;51.608;11.462;2022-09-03T07:13:52;1.17;;;1.00;;
49041;SDS011;34859;51.608;11.462;2022-09-03T07:16:57;1.55;;;1.05;;
49041;SDS011;34859;51.608;11.462;2022-09-03T07:19:42;1.63;;;1.45;;
49041;SDS011;34859;51.608;11.462;2022-09-03T07:22:28;1.17;;;1.00;;
49041;SDS011;34859;51.608;11.462;2022-09-03T07:25:13;2.45;;;1.23;;
49041;SDS011;34859;51.608;11.462;2022-09-03T07:27:52;1.15;;;0.88;;
49041;SDS011;34859;51.608;11.462;2022-09-03T07:30:36;1.25;;;0.85;;
49041;SDS011;34859;51.608;11.462;2022-09-03T07:33:20;2.08;;;1.00;;
49041;SDS011;34859;51.608;11.462;2022-09-03T07:36:05;1.40;;;0.90;;
49041;SDS011;34859;51.608;11.462;2022-09-03T07:38:55;1.88;;;0.88;;
49041;SDS011;34859;51.608;11.462;2022-09-03T07:41:41;2.92;;;0.90;;
49041;SDS011;34859;51.608;11.462;2022-09-03T07:44:28;1.60;;;1.17;;
49041;SDS011;34859;51.608;11.462;2022-09-03T07:47:13;4.05;;;1.15;;
49041;SDS011;34859;51.608;11.462;2022-09-03T07:49:55;2.47;;;0.90;;
49041;SDS011;34859;51.608;11.462;2022-09-03T07:52:42;1.13;;;0.88;;
49041;SDS011;34859;51.608;11.462;2022-09-03T07:55:26;3.10;;;1.13;;
49041;SDS011;34859;51.608;11.462;2022-09-03T07:58:10;1.10;;;0.80;;
49041;SDS011;34859;51.608;11.462;2022-09-03T08:00:56;2.65;;;1.00;;
49041;SDS011;34859;51.608;11.462;2022-09-03T08:03:42;6.13;;;1.05;;
49041;SDS011;34859;51.608;11.462;2022-09-03T08:06:28;2.38;;;1.25;;
49041;SDS011;34859;51.608;11.462;2022-09-03T08:09:10;3.90;;;0.65;;
49041;SDS011;34859;51.608;11.462;2022-09-03T08:11:56;2.47;;;0.80;;
49041;SDS011;34859;51.608;11.462;2022-09-03T08:14:37;1.83;;;0.82;;
49041;SDS011;34859;51.608;11.462;2022-09-03T08:17:21;2.78;;;1.00;;
49041;SDS011;34859;51.608;11.462;2022-09-03T08:20:05;3.13;;;0.90;;
49041;SDS011;34859;51.608;11.462;2022-09-03T08:22:50;4.15;;;1.08;;
49041;SDS011;34859;51.608;11.462;2022-09-03T08:25:35;1.38;;;0.82;;
49041;SDS011;34859;51.608;11.462;2022-09-03T08:28:19;2.22;;;0.80;;
49041;SDS011;34859;51.608;11.462;2022-09-03T08:31:10;5.28;;;1.10;;
49041;SDS011;34859;51.608;11.462;2022-09-03T08:33:57;2.60;;;0.65;;
49041;SDS011;34859;51.608;11.462;2022-09-03T08:36:43;3.33;;;1.02;;
49041;SDS011;34859;51.608;11.462;2022-09-03T08:39:29;2.33;;;1.00;;
49041;SDS011;34859;51.608;11.462;2022-09-03T08:42:17;1.10;;;1.00;;
49041;SDS011;34859;51.608;11.462;2022-09-03T08:45:24;1.98;;;1.27;;
49041;SDS011;34859;51.608;11.462;2022-09-03T08:48:15;1.10;;;0.80;;
49041;SDS011;34859;51.608;11.462;2022-09-03T08:51:04;1.08;;;0.90;;
49041;SDS011;34859;51.608;11.462;2022-09-03T08:53:51;1.80;;;0.90;;
49041;SDS011;34859;51.608;11.462;2022-09-03T08:59:22;2.13;;;0.88;;
49041;SDS011;34859;51.608;11.462;2022-09-03T09:02:19;1.67;;;0.70;;
49041;SDS011;34859;51.608;11.462;2022-09-03T09:06:05;3.28;;;1.25;;
49041;SDS011;34859;51.608;11.462;2022-09-03T09:08:37;1.90;;;1.13;;
49041;SDS011;34859;51.608;11.462;2022-09-03T09:14:56;1.38;;;0.90;;
49041;SDS011;34859;51.608;11.462;2022-09-03T09:24:10;2.28;;;0.70;;
49041;SDS011;34859;51.608;11.462;2022-09-03T09:27:08;2.47;;;0.90;;
49041;SDS011;34859;51.608;11.462;2022-09-03T09:30:00;1.92;;;0.60;;
49041;SDS011;34859;51.608;11.462;2022-09-03T09:32:48;1.23;;;0.80;;
49041;SDS011;34859;51.608;11.462;2022-09-03T09:35:32;1.60;;;0.90;;
49041;SDS011;34859;51.608;11.462;2022-09-03T09:38:25;1.67;;;0.60;;
49041;SDS011;34859;51.608;11.462;2022-09-03T09:41:15;2.33;;;0.70;;
49041;SDS011;34859;51.608;11.462;2022-09-03T09:44:00;2.25;;;0.60;;
49041;SDS011;34859;51.608;11.462;2022-09-03T09:46:45;1.52;;;0.90;;
49041;SDS011;34859;51.608;11.462;2022-09-03T09:49:33;0.70;;;0.50;;
49041;SDS011;34859;51.608;11.462;2022-09-03T09:52:19;1.00;;;0.85;;
49041;SDS011;34859;51.608;11.462;2022-09-03T09:55:15;2.05;;;0.77;;
49041;SDS011;34859;51.608;11.462;2022-09-03T09:58:09;4.05;;;0.70;;
49041;SDS011;34859;51.608;11.462;2022-09-03T10:00:55;0.70;;;0.52;;
49041;SDS011;34859;51.608;11.462;2022-09-03T10:03:51;1.65;;;0.98;;
49041;SDS011;34859;51.608;11.462;2022-09-03T10:06:39;2.33;;;0.73;;
49041;SDS011;34859;51.608;11.462;2022-09-03T10:09:39;3.50;;;0.80;;
49041;SDS011;34859;51.608;11.462;2022-09-03T10:12:24;3.53;;;0.90;;
49041;SDS011;34859;51.608;11.462;2022-09-03T10:18:14;0.98;;;0.75;;
49041;SDS011;34859;51.608;11.462;2022-09-03T10:21:49;3.97;;;0.82;;
49041;SDS011;34859;51.608;11.462;2022-09-03T10:27:29;3.70;;;0.80;;
49041;SDS011;34859;51.608;11.462;2022-09-03T10:30:13;0.85;;;0.70;;
49041;SDS011;34859;51.608;11.462;2022-09-03T10:33:09;1.48;;;0.50;;
49041;SDS011;34859;51.608;11.462;2022-09-03T10:54:49;2.28;;;0.85;;
49041;SDS011;34859;51.608;11.462;2022-09-03T11:04:45;6.35;;;0.90;;
49041;SDS011;34859;51.608;11.462;2022-09-03T11:07:40;1.80;;;0.75;;
49041;SDS011;34859;51.608;11.462;2022-09-03T11:10:37;2.97;;;0.70;;
49041;SDS011;34859;51.608;11.462;2022-09-03T11:13:30;2.13;;;0.80;;
49041;SDS011;34859;51.608;11.462;2022-09-03T11:16:25;1.63;;;0.90;;
49041;SDS011;34859;51.608;11.462;2022-09-03T11:19:19;2.15;;;1.05;;
49041;SDS011;34859;51.608;11.462;2022-09-03T11:22:13;1.90;;;0.60;;
49041;SDS011;34859;51.608;11.462;2022-09-03T11:25:00;2.67;;;0.70;;
49041;SDS011;34859;51.608;11.462;2022-09-03T11:33:46;1.00;;;0.77;;
49041;SDS011;34859;51.608;11.462;2022-09-03T11:36:44;1.70;;;0.60;;
49041;SDS011;34859;51.608;11.462;2022-09-03T11:39:38;3.33;;;0.85;;
49041;SDS011;34859;51.608;11.462;2022-09-03T11:45:32;2.00;;;0.93;;
49041;SDS011;34859;51.608;11.462;2022-09-03T11:57:02;2.42;;;0.80;;
49041;SDS011;34859;51.608;11.462;2022-09-03T12:00:10;1.92;;;1.10;;
49041;SDS011;34859;51.608;11.462;2022-09-03T12:03:03;2.03;;;1.00;;
49041;SDS011;34859;51.608;11.462;2022-09-03T12:14:57;0.90;;;0.80;;
49041;SDS011;34859;51.608;11.462;2022-09-03T12:18:13;3.55;;;1.00;;
49041;SDS011;34859;51.608;11.462;2022-09-03T12:21:08;4.20;;;0.70;;
49041;SDS011;34859;51.608;11.462;2022-09-03T12:23:53;3.70;;;0.82;;
49041;SDS011;34859;51.608;11.462;2022-09-03T12:29:25;0.82;;;0.80;;
49041;SDS011;34859;51.608;11.462;2022-09-03T12:32:11;1.05;;;0.90;;
49041;SDS011;34859;51.608;11.462;2022-09-03T12:34:57;2.10;;;0.90;;
49041;SDS011;34859;51.608;11.462;2022-09-03T12:37:50;0.90;;;0.70;;
49041;SDS011;34859;51.608;11.462;2022-09-03T12:40:40;0.70;;;0.60;;
49041;SDS011;34859;51.608;11.462;2022-09-03T12:43:26;3.63;;;1.02;;
49041;SDS011;34859;51.608;11.462;2022-09-03T12:46:14;3.33;;;1.40;;
49041;SDS011;34859;51.608;11.462;2022-09-03T12:48:59;1.52;;;1.00;;
49041;SDS011;34859;51.608;11.462;2022-09-03T12:51:49;2.22;;;0.80;;
49041;SDS011;34859;51.608;11.462;2022-09-03T12:54:36;0.77;;;0.77;;
49041;SDS011;34859;51.608;11.462;2022-09-03T12:57:31;1.45;;;1.02;;
49041;SDS011;34859;51.608;11.462;2022-09-03T13:00:25;2.38;;;0.88;;
49041;SDS011;34859;51.608;11.462;2022-09-03T13:06:27;3.83;;;1.30;;
49041;SDS011;34859;51.608;11.462;2022-09-03T13:09:21;1.67;;;0.70;;
49041;SDS011;34859;51.608;11.462;2022-09-03T13:12:19;1.92;;;0.63;;
49041;SDS011;34859;51.608;11.462;2022-09-03T13:15:16;1.17;;;1.05;;
49041;SDS011;34859;51.608;11.462;2022-09-03T13:21:04;4.85;;;0.95;;
49041;SDS011;34859;51.608;11.462;2022-09-03T13:27:41;3.20;;;0.90;;
49041;SDS011;34859;51.608;11.462;2022-09-03T13:30:52;0.70;;;0.70;;
49041;SDS011;34859;51.608;11.462;2022-09-03T13:33:42;1.48;;;1.08;;
49041;SDS011;34859;51.608;11.462;2022-09-03T13:39:29;2.05;;;1.13;;
49041;SDS011;34859;51.608;11.462;2022-09-03T13:48:16;0.83;;;0.70;;
49041;SDS011;34859;51.608;11.462;2022-09-03T13:51:31;2.13;;;1.13;;
49041;SDS011;34859;51.608;11.462;2022-09-03T13:54:26;1.27;;;1.10;;
49041;SDS011;34859;51.608;11.462;2022-09-03T13:57:29;2.25;;;0.65;;
49041;SDS011;34859;51.608;11.462;2022-09-03T14:00:48;2.08;;;1.02;;
49041;SDS011;34859;51.608;11.462;2022-09-03T14:03:51;1.23;;;1.00;;
49041;SDS011;34859;51.608;11.462;2022-09-03T14:06:45;2.22;;;0.88;;
49041;SDS011;34859;51.608;11.462;2022-09-03T14:15:58;3.63;;;0.82;;
49041;SDS011;34859;51.608;11.462;2022-09-03T14:21:57;0.88;;;0.77;;
49041;SDS011;34859;51.608;11.462;2022-09-03T14:27:35;2.72;;;0.80;;
49041;SDS011;34859;51.608;11.462;2022-09-03T14:30:27;1.95;;;0.73;;
49041;SDS011;34859;51.608;11.462;2022-09-03T14:33:25;1.88;;;0.70;;
49041;SDS011;34859;51.608;11.462;2022-09-03T14:36:24;0.70;;;0.70;;
49041;SDS011;34859;51.608;11.462;2022-09-03T14:39:26;1.42;;;1.05;;
49041;SDS011;34859;51.608;11.462;2022-09-03T14:42:21;1.08;;;0.95;;
49041;SDS011;34859;51.608;11.462;2022-09-03T14:48:21;3.38;;;0.90;;
49041;SDS011;34859;51.608;11.462;2022-09-03T14:57:24;1.65;;;0.75;;
49041;SDS011;34859;51.608;11.462;2022-09-03T15:06:10;3.05;;;1.33;;
49041;SDS011;34859;51.608;11.462;2022-09-03T15:12:02;1.20;;;0.77;;
49041;SDS011;34859;51.608;11.462;2022-09-03T15:14:56;0.82;;;0.82;;
49041;SDS011;34859;51.608;11.462;2022-09-03T15:20:49;2.05;;;1.02;;
49041;SDS011;34859;51.608;11.462;2022-09-03T15:27:01;3.30;;;1.08;;
49041;SDS011;34859;51.608;11.462;2022-09-03T15:36:00;1.25;;;0.98;;
49041;SDS011;34859;51.608;11.462;2022-09-03T15:39:11;1.38;;;1.00;;
49041;SDS011;34859;51.608;11.462;2022-09-03T15:45:13;2.70;;;1.02;;
49041;SDS011;34859;51.608;11.462;2022-09-03T16:00:59;1.92;;;1.10;;
49041;SDS011;34859;51.608;11.462;2022-09-03T16:09:36;1.95;;;0.73;;
49041;SDS011;34859;51.608;11.462;2022-09-03T16:12:54;2.65;;;1.10;;
49041;SDS011;34859;51.608;11.462;2022-09-03T16:15:44;1.42;;;1.20;;
49041;SDS011;34859;51.608;11.462;2022-09-03T16:24:20;2.22;;;1.02;;
49041;SDS011;34859;51.608;11.462;2022-09-03T16:27:15;1.02;;;0.90;;
49041;SDS011;34859;51.608;11.462;2022-09-03T16:30:09;2.00;;;0.95;;
49041;SDS011;34859;51.608;11.462;2022-09-03T16:42:28;4.07;;;1.00;;
49041;SDS011;34859;51.608;11.462;2022-09-03T16:45:24;3.33;;;1.30;;
49041;SDS011;34859;51.608;11.462;2022-09-03T16:48:25;2.22;;;1.38;;
49041;SDS011;34859;51.608;11.462;2022-09-03T16:54:30;7.53;;;0.98;;
49041;SDS011;34859;51.608;11.462;2022-09-03T16:57:50;3.13;;;0.88;;
49041;SDS011;34859;51.608;11.462;2022-09-03T17:01:01;2.58;;;0.90;;
49041;SDS011;34859;51.608;11.462;2022-09-03T17:07:18;3.88;;;1.08;;
49041;SDS011;34859;51.608;11.462;2022-09-03T17:16:46;4.68;;;1.20;;
49041;SDS011;34859;51.608;11.462;2022-09-03T17:25:36;2.45;;;0.90;;
49041;SDS011;34859;51.608;11.462;2022-09-03T17:28:46;1.90;;;0.90;;
49041;SDS011;34859;51.608;11.462;2022-09-03T17:31:56;2.08;;;1.02;;
49041;SDS011;34859;51.608;11.462;2022-09-03T17:44:46;3.10;;;0.98;;
49041;SDS011;34859;51.608;11.462;2022-09-03T17:48:03;1.17;;;0.82;;
49041;SDS011;34859;51.608;11.462;2022-09-03T17:51:04;2.63;;;1.10;;
49041;SDS011;34859;51.608;11.462;2022-09-03T17:56:50;1.38;;;0.73;;
49041;SDS011;34859;51.608;11.462;2022-09-03T18:05:40;1.50;;;1.40;;
49041;SDS011;34859;51.608;11.462;2022-09-03T18:08:46;1.23;;;1.02;;
49041;SDS011;34859;51.608;11.462;2022-09-03T18:15:03;2.53;;;1.20;;
49041;SDS011;34859;51.608;11.462;2022-09-03T18:18:02;1.30;;;1.20;;
49041;SDS011;34859;51.608;11.462;2022-09-03T18:20:53;2.65;;;1.52;;
49041;SDS011;34859;51.608;11.462;2022-09-03T18:30:45;2.58;;;1.38;;
49041;SDS011;34859;51.608;11.462;2022-09-03T18:33:48;1.55;;;0.95;;
49041;SDS011;34859;51.608;11.462;2022-09-03T18:36:48;7.32;;;1.83;;
49041;SDS011;34859;51.608;11.462;2022-09-03T18:39:51;5.07;;;1.25;;
49041;SDS011;34859;51.608;11.462;2022-09-03T18:43:03;4.03;;;1.25;;
49041;SDS011;34859;51.608;11.462;2022-09-03T18:46:23;1.33;;;1.23;;
49041;SDS011;34859;51.608;11.462;2022-09-03T18:53:34;3.72;;;1.00;;
49041;SDS011;34859;51.608;11.462;2022-09-03T18:56:52;4.43;;;1.40;;
49041;SDS011;34859;51.608;11.462;2022-09-03T19:00:00;5.18;;;1.60;;
49041;SDS011;34859;51.608;11.462;2022-09-03T19:10:10;2.80;;;1.40;;
49041;SDS011;34859;51.608;11.462;2022-09-03T19:23:19;3.40;;;1.17;;
49041;SDS011;34859;51.608;11.462;2022-09-03T19:26:26;3.38;;;1.63;;
49041;SDS011;34859;51.608;11.462;2022-09-03T19:33:25;1.50;;;1.33;;
49041;SDS011;34859;51.608;11.462;2022-09-03T19:36:43;2.42;;;1.42;;
49041;SDS011;34859;51.608;11.462;2022-09-03T19:40:23;3.60;;;1.50;;
49041;SDS011;34859;51.608;11.462;2022-09-03T19:43:59;1.85;;;1.63;;
49041;SDS011;34859;51.608;11.462;2022-09-03T19:47:08;4.68;;;1.42;;
49041;SDS011;34859;51.608;11.462;2022-09-03T19:50:23;4.78;;;1.92;;
49041;SDS011;34859;51.608;11.462;2022-09-03T19:53:30;3.22;;;1.10;;
49041;SDS011;34859;51.608;11.462;2022-09-03T19:56:35;3.58;;;1.90;;
49041;SDS011;34859;51.608;11.462;2022-09-03T19:59:40;3.72;;;1.30;;
49041;SDS011;34859;51.608;11.462;2022-09-03T20:02:46;2.03;;;1.77;;
49041;SDS011;34859;51.608;11.462;2022-09-03T20:05:50;2.05;;;1.55;;
49041;SDS011;34859;51.608;11.462;2022-09-03T20:08:55;4.97;;;3.00;;
49041;SDS011;34859;51.608;11.462;2022-09-03T20:12:04;3.10;;;2.90;;
49041;SDS011;34859;51.608;11.462;2022-09-03T20:14:50;3.97;;;3.58;;
49041;SDS011;34859;51.608;11.462;2022-09-03T20:17:37;4.70;;;2.53;;
49041;SDS011;34859;51.608;11.462;2022-09-03T20:20:51;8.32;;;3.08;;
49041;SDS011;34859;51.608;11.462;2022-09-03T20:54:18;9.00;;;8.15;;
49041;SDS011;34859;51.608;11.462;2022-09-03T20:59:28;17.15;;;15.55;;
49041;SDS011;34859;51.608;11.462;2022-09-03T21:02:41;9.82;;;8.90;;
49041;SDS011;34859;51.608;11.462;2022-09-03T21:15:07;3.53;;;3.22;;
49041;SDS011;34859;51.608;11.462;2022-09-03T21:24:36;2.30;;;1.70;;
49041;SDS011;34859;51.608;11.462;2022-09-03T21:27:31;2.10;;;1.90;;
49041;SDS011;34859;51.608;11.462;2022-09-03T21:30:29;2.30;;;1.70;;
49041;SDS011;34859;51.608;11.462;2022-09-03T21:33:17;2.22;;;2.03;;
49041;SDS011;34859;51.608;11.462;2022-09-03T21:36:10;2.42;;;2.22;;
49041;SDS011;34859;51.608;11.462;2022-09-03T21:38:58;4.70;;;2.83;;
49041;SDS011;34859;51.608;11.462;2022-09-03T21:42:22;3.83;;;2.67;;
49041;SDS011;34859;51.608;11.462;2022-09-03T21:48:40;2.83;;;2.20;;
49041;SDS011;34859;51.608;11.462;2022-09-03T21:51:34;3.83;;;2.10;;
49041;SDS011;34859;51.608;11.462;2022-09-03T21:54:39;5.40;;;2.53;;
49041;SDS011;34859;51.608;11.462;2022-09-03T21:57:33;3.97;;;2.10;;
49041;SDS011;34859;51.608;11.462;2022-09-03T22:00:40;2.20;;;2.00;;
49041;SDS011;34859;51.608;11.462;2022-09-03T22:03:26;2.38;;;2.00;;
49041;SDS011;34859;51.608;11.462;2022-09-03T22:06:15;2.43;;;2.23;;
49041;SDS011;34859;51.608;11.462;2022-09-03T22:09:09;3.55;;;2.05;;
49041;SDS011;34859;51.608;11.462;2022-09-03T22:12:23;2.58;;;2.17;;
49041;SDS011;34859;51.608;11.462;2022-09-03T22:15:28;2.53;;;2.10;;
49041;SDS011;34859;51.608;11.462;2022-09-03T22:21:19;3.78;;;2.35;;
49041;SDS011;34859;51.608;11.462;2022-09-03T22:30:17;1.75;;;1.65;;
49041;SDS011;34859;51.608;11.462;2022-09-03T22:33:17;3.15;;;2.05;;
49041;SDS011;34859;51.608;11.462;2022-09-03T22:36:13;2.75;;;2.15;;
49041;SDS011;34859;51.608;11.462;2022-09-03T22:53:45;2.33;;;1.92;;
49041;SDS011;34859;51.608;11.462;2022-09-03T22:56:41;4.57;;;2.75;;
49041;SDS011;34859;51.608;11.462;2022-09-03T23:02:19;4.53;;;2.72;;
49041;SDS011;34859;51.608;11.462;2022-09-03T23:05:06;4.10;;;2.65;;
49041;SDS011;34859;51.608;11.462;2022-09-03T23:07:53;9.32;;;3.15;;
49041;SDS011;34859;51.608;11.462;2022-09-03T23:11:03;3.20;;;2.35;;
49041;SDS011;34859;51.608;11.462;2022-09-03T23:14:00;4.72;;;2.65;;
49041;SDS011;34859;51.608;11.462;2022-09-03T23:16:53;2.72;;;2.30;;
49041;SDS011;34859;51.608;11.462;2022-09-03T23:25:44;2.13;;;1.83;;
49041;SDS011;34859;51.608;11.462;2022-09-03T23:28:33;5.47;;;2.25;;
49041;SDS011;34859;51.608;11.462;2022-09-03T23:34:07;3.95;;;2.75;;
49041;SDS011;34859;51.608;11.462;2022-09-03T23:40:09;2.95;;;2.55;;
49041;SDS011;34859;51.608;11.462;2022-09-03T23:46:37;2.70;;;2.50;;
49041;SDS011;34859;51.608;11.462;2022-09-03T23:55:39;4.75;;;3.00;;
49041;SDS011;34859;51.608;11.462;2022-09-03T23:58:33;3.00;;;2.70;;
